sensor_id;sensor_type;location;lat;lon;timestamp;P1;durP1;ratioP1;P2;durP2;ratioP2
10045;SDS011;5063;50.878;4.742;2023-06-14T00:01:44;5.93;;;5.40;;
10045;SDS011;5063;50.878;4.742;2023-06-14T00:04:11;6.33;;;4.90;;
10045;SDS011;5063;50.878;4.742;2023-06-14T00:06:37;7.70;;;4.70;;
10045;SDS011;5063;50.878;4.742;2023-06-14T00:09:04;5.50;;;5.00;;
10045;SDS011;5063;50.878;4.742;2023-06-14T00:11:33;7.03;;;5.47;;
10045;SDS011;5063;50.878;4.742;2023-06-14T00:13:59;7.10;;;4.60;;
10045;SDS011;5063;50.878;4.742;2023-06-14T00:16:24;5.63;;;5.03;;
10045;SDS011;5063;50.878;4.742;2023-06-14T00:18:50;5.70;;;5.10;;
10045;SDS011;5063;50.878;4.742;2023-06-14T00:21:17;8.43;;;4.73;;
10045;SDS011;5063;50.878;4.742;2023-06-14T00:23:43;5.37;;;4.67;;
10045;SDS011;5063;50.878;4.742;2023-06-14T00:26:08;11.10;;;5.03;;
10045;SDS011;5063;50.878;4.742;2023-06-14T00:28:34;6.57;;;4.97;;
10045;SDS011;5063;50.878;4.742;2023-06-14T00:31:00;6.53;;;5.73;;
10045;SDS011;5063;50.878;4.742;2023-06-14T00:33:26;8.37;;;5.43;;
10045;SDS011;5063;50.878;4.742;2023-06-14T00:35:51;8.50;;;5.23;;
10045;SDS011;5063;50.878;4.742;2023-06-14T00:38:20;7.10;;;5.30;;
10045;SDS011;5063;50.878;4.742;2023-06-14T00:40:46;7.03;;;5.13;;
10045;SDS011;5063;50.878;4.742;2023-06-14T00:43:12;6.30;;;4.83;;
10045;SDS011;5063;50.878;4.742;2023-06-14T00:45:38;8.07;;;5.10;;
10045;SDS011;5063;50.878;4.742;2023-06-14T00:48:04;6.43;;;5.30;;
10045;SDS011;5063;50.878;4.742;2023-06-14T00:50:31;6.43;;;5.83;;
10045;SDS011;5063;50.878;4.742;2023-06-14T00:52:59;6.70;;;5.33;;
10045;SDS011;5063;50.878;4.742;2023-06-14T00:55:26;7.37;;;5.80;;
10045;SDS011;5063;50.878;4.742;2023-06-14T00:57:53;6.10;;;5.50;;
10045;SDS011;5063;50.878;4.742;2023-06-14T01:00:20;6.00;;;5.40;;
10045;SDS011;5063;50.878;4.742;2023-06-14T01:02:46;6.67;;;5.03;;
10045;SDS011;5063;50.878;4.742;2023-06-14T01:05:12;6.10;;;5.60;;
10045;SDS011;5063;50.878;4.742;2023-06-14T01:13:12;6.03;;;5.43;;
10045;SDS011;5063;50.878;4.742;2023-06-14T01:15:45;6.03;;;5.30;;
10045;SDS011;5063;50.878;4.742;2023-06-14T01:18:12;5.50;;;5.00;;
10045;SDS011;5063;50.878;4.742;2023-06-14T01:20:42;5.67;;;5.17;;
10045;SDS011;5063;50.878;4.742;2023-06-14T01:23:15;5.80;;;4.70;;
10045;SDS011;5063;50.878;4.742;2023-06-14T01:25:45;5.63;;;5.13;;
10045;SDS011;5063;50.878;4.742;2023-06-14T01:28:12;7.03;;;5.53;;
10045;SDS011;5063;50.878;4.742;2023-06-14T01:30:40;5.57;;;5.07;;
10045;SDS011;5063;50.878;4.742;2023-06-14T01:33:11;5.50;;;4.90;;
10045;SDS011;5063;50.878;4.742;2023-06-14T01:35:39;7.37;;;6.27;;
10045;SDS011;5063;50.878;4.742;2023-06-14T01:38:07;11.10;;;5.60;;
10045;SDS011;5063;50.878;4.742;2023-06-14T01:40:33;8.70;;;5.17;;
10045;SDS011;5063;50.878;4.742;2023-06-14T01:43:00;5.70;;;5.17;;
10045;SDS011;5063;50.878;4.742;2023-06-14T01:45:27;7.33;;;5.73;;
10045;SDS011;5063;50.878;4.742;2023-06-14T01:47:54;5.97;;;5.20;;
10045;SDS011;5063;50.878;4.742;2023-06-14T01:50:20;8.57;;;5.50;;
10045;SDS011;5063;50.878;4.742;2023-06-14T01:52:46;6.90;;;6.17;;
10045;SDS011;5063;50.878;4.742;2023-06-14T01:55:12;6.67;;;5.93;;
10045;SDS011;5063;50.878;4.742;2023-06-14T01:57:38;8.37;;;5.90;;
10045;SDS011;5063;50.878;4.742;2023-06-14T02:00:04;8.03;;;5.00;;
10045;SDS011;5063;50.878;4.742;2023-06-14T02:02:35;9.93;;;5.27;;
10045;SDS011;5063;50.878;4.742;2023-06-14T02:05:01;6.97;;;5.63;;
10045;SDS011;5063;50.878;4.742;2023-06-14T02:07:27;7.43;;;5.30;;
10045;SDS011;5063;50.878;4.742;2023-06-14T02:09:53;7.30;;;6.00;;
10045;SDS011;5063;50.878;4.742;2023-06-14T02:12:19;7.20;;;5.70;;
10045;SDS011;5063;50.878;4.742;2023-06-14T02:14:44;6.57;;;5.97;;
10045;SDS011;5063;50.878;4.742;2023-06-14T02:17:10;8.87;;;6.43;;
10045;SDS011;5063;50.878;4.742;2023-06-14T02:19:36;6.53;;;5.87;;
10045;SDS011;5063;50.878;4.742;2023-06-14T02:22:02;7.50;;;5.73;;
10045;SDS011;5063;50.878;4.742;2023-06-14T02:24:28;7.67;;;6.83;;
10045;SDS011;5063;50.878;4.742;2023-06-14T02:26:54;10.53;;;6.77;;
10045;SDS011;5063;50.878;4.742;2023-06-14T02:29:19;10.70;;;6.17;;
10045;SDS011;5063;50.878;4.742;2023-06-14T02:31:46;8.00;;;6.20;;
10045;SDS011;5063;50.878;4.742;2023-06-14T02:34:13;11.83;;;6.97;;
10045;SDS011;5063;50.878;4.742;2023-06-14T02:36:42;7.37;;;6.10;;
10045;SDS011;5063;50.878;4.742;2023-06-14T02:39:08;8.40;;;6.30;;
10045;SDS011;5063;50.878;4.742;2023-06-14T02:41:37;8.17;;;6.60;;
10045;SDS011;5063;50.878;4.742;2023-06-14T02:44:03;9.17;;;6.20;;
10045;SDS011;5063;50.878;4.742;2023-06-14T02:46:29;8.50;;;6.93;;
10045;SDS011;5063;50.878;4.742;2023-06-14T02:48:55;9.43;;;6.03;;
10045;SDS011;5063;50.878;4.742;2023-06-14T02:51:21;8.17;;;6.30;;
10045;SDS011;5063;50.878;4.742;2023-06-14T02:53:46;9.13;;;6.43;;
10045;SDS011;5063;50.878;4.742;2023-06-14T02:56:12;10.03;;;6.97;;
10045;SDS011;5063;50.878;4.742;2023-06-14T02:58:38;7.57;;;6.80;;
10045;SDS011;5063;50.878;4.742;2023-06-14T03:01:05;6.87;;;6.17;;
10045;SDS011;5063;50.878;4.742;2023-06-14T03:03:33;11.97;;;6.97;;
10045;SDS011;5063;50.878;4.742;2023-06-14T03:05:58;9.13;;;7.80;;
10045;SDS011;5063;50.878;4.742;2023-06-14T03:08:30;7.10;;;6.30;;
10045;SDS011;5063;50.878;4.742;2023-06-14T03:11:03;7.17;;;6.47;;
10045;SDS011;5063;50.878;4.742;2023-06-14T03:13:30;8.23;;;7.03;;
10045;SDS011;5063;50.878;4.742;2023-06-14T03:15:59;9.23;;;7.37;;
10045;SDS011;5063;50.878;4.742;2023-06-14T03:18:28;7.63;;;6.77;;
10045;SDS011;5063;50.878;4.742;2023-06-14T03:20:56;7.87;;;7.10;;
10045;SDS011;5063;50.878;4.742;2023-06-14T03:23:26;8.27;;;6.83;;
10045;SDS011;5063;50.878;4.742;2023-06-14T03:25:52;8.57;;;6.77;;
10045;SDS011;5063;50.878;4.742;2023-06-14T03:28:17;10.37;;;6.57;;
10045;SDS011;5063;50.878;4.742;2023-06-14T03:30:43;8.30;;;6.53;;
10045;SDS011;5063;50.878;4.742;2023-06-14T03:33:09;8.03;;;7.10;;
10045;SDS011;5063;50.878;4.742;2023-06-14T03:35:35;11.17;;;6.60;;
10045;SDS011;5063;50.878;4.742;2023-06-14T03:38:01;10.30;;;6.23;;
10045;SDS011;5063;50.878;4.742;2023-06-14T03:40:27;8.60;;;6.63;;
10045;SDS011;5063;50.878;4.742;2023-06-14T03:42:54;7.53;;;6.83;;
10045;SDS011;5063;50.878;4.742;2023-06-14T03:45:20;7.97;;;6.47;;
10045;SDS011;5063;50.878;4.742;2023-06-14T03:47:46;6.70;;;6.00;;
10045;SDS011;5063;50.878;4.742;2023-06-14T03:50:12;6.60;;;5.93;;
10045;SDS011;5063;50.878;4.742;2023-06-14T03:52:38;7.93;;;7.10;;
10045;SDS011;5063;50.878;4.742;2023-06-14T03:55:03;8.77;;;7.57;;
10045;SDS011;5063;50.878;4.742;2023-06-14T03:57:30;8.53;;;6.57;;
10045;SDS011;5063;50.878;4.742;2023-06-14T03:59:56;10.30;;;6.67;;
10045;SDS011;5063;50.878;4.742;2023-06-14T04:02:21;8.43;;;7.13;;
10045;SDS011;5063;50.878;4.742;2023-06-14T04:04:47;7.37;;;6.67;;
10045;SDS011;5063;50.878;4.742;2023-06-14T04:07:14;7.70;;;6.40;;
10045;SDS011;5063;50.878;4.742;2023-06-14T04:09:40;9.10;;;7.37;;
10045;SDS011;5063;50.878;4.742;2023-06-14T04:12:08;7.67;;;6.97;;
10045;SDS011;5063;50.878;4.742;2023-06-14T04:14:34;8.60;;;7.37;;
10045;SDS011;5063;50.878;4.742;2023-06-14T04:17:00;8.40;;;7.13;;
10045;SDS011;5063;50.878;4.742;2023-06-14T04:19:26;7.97;;;7.03;;
10045;SDS011;5063;50.878;4.742;2023-06-14T04:21:52;7.83;;;6.90;;
10045;SDS011;5063;50.878;4.742;2023-06-14T04:24:18;9.53;;;6.63;;
10045;SDS011;5063;50.878;4.742;2023-06-14T04:26:44;10.00;;;6.83;;
10045;SDS011;5063;50.878;4.742;2023-06-14T04:29:13;8.10;;;7.30;;
10045;SDS011;5063;50.878;4.742;2023-06-14T04:31:41;8.20;;;7.10;;
10045;SDS011;5063;50.878;4.742;2023-06-14T04:34:08;9.40;;;7.53;;
10045;SDS011;5063;50.878;4.742;2023-06-14T04:36:34;8.70;;;6.77;;
10045;SDS011;5063;50.878;4.742;2023-06-14T04:39:02;10.70;;;7.20;;
10045;SDS011;5063;50.878;4.742;2023-06-14T04:41:31;10.03;;;7.03;;
10045;SDS011;5063;50.878;4.742;2023-06-14T04:43:57;8.90;;;6.90;;
10045;SDS011;5063;50.878;4.742;2023-06-14T04:46:29;7.50;;;6.80;;
10045;SDS011;5063;50.878;4.742;2023-06-14T04:48:57;14.93;;;7.83;;
10045;SDS011;5063;50.878;4.742;2023-06-14T04:51:23;11.90;;;7.00;;
10045;SDS011;5063;50.878;4.742;2023-06-14T04:53:57;9.57;;;7.63;;
10045;SDS011;5063;50.878;4.742;2023-06-14T04:56:23;9.73;;;7.43;;
10045;SDS011;5063;50.878;4.742;2023-06-14T04:58:52;8.17;;;7.37;;
10045;SDS011;5063;50.878;4.742;2023-06-14T05:01:19;12.67;;;7.43;;
10045;SDS011;5063;50.878;4.742;2023-06-14T05:03:46;7.93;;;6.87;;
10045;SDS011;5063;50.878;4.742;2023-06-14T05:06:14;10.00;;;7.33;;
10045;SDS011;5063;50.878;4.742;2023-06-14T05:08:40;9.37;;;6.60;;
10045;SDS011;5063;50.878;4.742;2023-06-14T05:11:06;9.77;;;7.00;;
10045;SDS011;5063;50.878;4.742;2023-06-14T05:13:32;10.47;;;7.40;;
10045;SDS011;5063;50.878;4.742;2023-06-14T05:15:59;7.70;;;6.70;;
10045;SDS011;5063;50.878;4.742;2023-06-14T05:18:26;13.02;;;7.07;;
10045;SDS011;5063;50.878;4.742;2023-06-14T05:20:51;9.40;;;6.70;;
10045;SDS011;5063;50.878;4.742;2023-06-14T05:23:17;9.10;;;6.60;;
10045;SDS011;5063;50.878;4.742;2023-06-14T05:25:43;8.50;;;7.30;;
10045;SDS011;5063;50.878;4.742;2023-06-14T05:28:10;7.95;;;6.72;;
10045;SDS011;5063;50.878;4.742;2023-06-14T05:30:37;8.80;;;6.60;;
10045;SDS011;5063;50.878;4.742;2023-06-14T05:33:04;9.13;;;7.20;;
10045;SDS011;5063;50.878;4.742;2023-06-14T05:35:30;7.78;;;6.93;;
10045;SDS011;5063;50.878;4.742;2023-06-14T05:37:55;7.68;;;6.88;;
10045;SDS011;5063;50.878;4.742;2023-06-14T05:40:21;8.02;;;6.70;;
10045;SDS011;5063;50.878;4.742;2023-06-14T05:42:47;10.13;;;7.03;;
10045;SDS011;5063;50.878;4.742;2023-06-14T05:45:13;10.13;;;7.50;;
10045;SDS011;5063;50.878;4.742;2023-06-14T05:47:41;8.40;;;7.30;;
10045;SDS011;5063;50.878;4.742;2023-06-14T05:50:07;9.40;;;7.20;;
10045;SDS011;5063;50.878;4.742;2023-06-14T05:52:34;8.80;;;7.65;;
10045;SDS011;5063;50.878;4.742;2023-06-14T05:55:00;10.15;;;7.20;;
10045;SDS011;5063;50.878;4.742;2023-06-14T05:57:26;8.85;;;7.03;;
10045;SDS011;5063;50.878;4.742;2023-06-14T05:59:52;7.32;;;6.57;;
10045;SDS011;5063;50.878;4.742;2023-06-14T06:02:18;10.68;;;6.95;;
10045;SDS011;5063;50.878;4.742;2023-06-14T06:04:44;13.43;;;7.03;;
10045;SDS011;5063;50.878;4.742;2023-06-14T06:07:10;7.55;;;6.20;;
10045;SDS011;5063;50.878;4.742;2023-06-14T06:09:36;10.60;;;7.15;;
10045;SDS011;5063;50.878;4.742;2023-06-14T06:12:02;7.63;;;6.78;;
10045;SDS011;5063;50.878;4.742;2023-06-14T06:14:28;7.95;;;6.28;;
10045;SDS011;5063;50.878;4.742;2023-06-14T06:16:54;12.40;;;7.70;;
10045;SDS011;5063;50.878;4.742;2023-06-14T06:19:19;7.40;;;6.70;;
10045;SDS011;5063;50.878;4.742;2023-06-14T06:21:45;7.30;;;6.40;;
10045;SDS011;5063;50.878;4.742;2023-06-14T06:24:11;7.82;;;6.25;;
10045;SDS011;5063;50.878;4.742;2023-06-14T06:26:37;8.20;;;6.38;;
10045;SDS011;5063;50.878;4.742;2023-06-14T06:29:04;8.20;;;6.32;;
10045;SDS011;5063;50.878;4.742;2023-06-14T06:31:29;10.48;;;6.43;;
10045;SDS011;5063;50.878;4.742;2023-06-14T06:33:55;9.50;;;6.72;;
10045;SDS011;5063;50.878;4.742;2023-06-14T06:36:21;9.65;;;6.07;;
10045;SDS011;5063;50.878;4.742;2023-06-14T06:38:47;7.82;;;5.85;;
10045;SDS011;5063;50.878;4.742;2023-06-14T06:41:13;8.38;;;6.65;;
10045;SDS011;5063;50.878;4.742;2023-06-14T06:43:39;6.93;;;6.22;;
10045;SDS011;5063;50.878;4.742;2023-06-14T06:46:05;6.63;;;5.60;;
10045;SDS011;5063;50.878;4.742;2023-06-14T06:48:31;6.25;;;5.65;;
10045;SDS011;5063;50.878;4.742;2023-06-14T06:50:56;10.05;;;6.22;;
10045;SDS011;5063;50.878;4.742;2023-06-14T06:53:22;8.73;;;5.43;;
10045;SDS011;5063;50.878;4.742;2023-06-14T06:55:48;7.38;;;5.30;;
10045;SDS011;5063;50.878;4.742;2023-06-14T06:58:14;11.23;;;6.35;;
10045;SDS011;5063;50.878;4.742;2023-06-14T07:00:39;5.88;;;5.35;;
10045;SDS011;5063;50.878;4.742;2023-06-14T07:03:06;8.10;;;5.93;;
10045;SDS011;5063;50.878;4.742;2023-06-14T07:05:32;9.32;;;6.00;;
10045;SDS011;5063;50.878;4.742;2023-06-14T07:07:57;10.27;;;6.20;;
10045;SDS011;5063;50.878;4.742;2023-06-14T07:10:23;8.77;;;6.10;;
10045;SDS011;5063;50.878;4.742;2023-06-14T07:12:49;6.85;;;5.65;;
10045;SDS011;5063;50.878;4.742;2023-06-14T07:15:16;6.97;;;5.90;;
10045;SDS011;5063;50.878;4.742;2023-06-14T07:17:41;8.32;;;5.57;;
10045;SDS011;5063;50.878;4.742;2023-06-14T07:20:08;7.18;;;5.78;;
10045;SDS011;5063;50.878;4.742;2023-06-14T07:22:37;7.38;;;5.65;;
10045;SDS011;5063;50.878;4.742;2023-06-14T07:25:04;7.30;;;5.45;;
10045;SDS011;5063;50.878;4.742;2023-06-14T07:27:30;7.57;;;5.32;;
10045;SDS011;5063;50.878;4.742;2023-06-14T07:29:55;7.68;;;4.95;;
10045;SDS011;5063;50.878;4.742;2023-06-14T07:32:21;6.97;;;5.45;;
10045;SDS011;5063;50.878;4.742;2023-06-14T07:34:47;9.88;;;5.50;;
10045;SDS011;5063;50.878;4.742;2023-06-14T07:37:13;7.00;;;5.38;;
10045;SDS011;5063;50.878;4.742;2023-06-14T07:39:39;8.35;;;5.22;;
10045;SDS011;5063;50.878;4.742;2023-06-14T07:42:04;6.15;;;5.55;;
10045;SDS011;5063;50.878;4.742;2023-06-14T07:44:31;6.38;;;4.97;;
10045;SDS011;5063;50.878;4.742;2023-06-14T07:46:57;6.90;;;5.85;;
10045;SDS011;5063;50.878;4.742;2023-06-14T07:49:26;8.52;;;5.22;;
10045;SDS011;5063;50.878;4.742;2023-06-14T07:51:52;6.85;;;5.55;;
10045;SDS011;5063;50.878;4.742;2023-06-14T07:54:19;6.15;;;5.55;;
10045;SDS011;5063;50.878;4.742;2023-06-14T07:56:50;9.82;;;5.82;;
10045;SDS011;5063;50.878;4.742;2023-06-14T07:59:16;7.38;;;5.70;;
10045;SDS011;5063;50.878;4.742;2023-06-14T08:01:41;6.15;;;5.55;;
10045;SDS011;5063;50.878;4.742;2023-06-14T08:04:15;9.32;;;5.70;;
10045;SDS011;5063;50.878;4.742;2023-06-14T08:06:41;7.22;;;5.50;;
10045;SDS011;5063;50.878;4.742;2023-06-14T08:09:09;6.25;;;5.00;;
10045;SDS011;5063;50.878;4.742;2023-06-14T08:11:36;6.63;;;5.50;;
10045;SDS011;5063;50.878;4.742;2023-06-14T08:14:02;6.00;;;5.03;;
10045;SDS011;5063;50.878;4.742;2023-06-14T08:16:27;9.75;;;5.72;;
10045;SDS011;5063;50.878;4.742;2023-06-14T08:18:54;6.03;;;5.15;;
10045;SDS011;5063;50.878;4.742;2023-06-14T08:21:20;8.30;;;5.82;;
10045;SDS011;5063;50.878;4.742;2023-06-14T08:23:46;7.15;;;5.78;;
10045;SDS011;5063;50.878;4.742;2023-06-14T08:26:12;6.55;;;5.75;;
10045;SDS011;5063;50.878;4.742;2023-06-14T08:28:38;6.30;;;5.70;;
10045;SDS011;5063;50.878;4.742;2023-06-14T08:31:04;7.10;;;5.35;;
10045;SDS011;5063;50.878;4.742;2023-06-14T08:33:30;5.95;;;4.80;;
10045;SDS011;5063;50.878;4.742;2023-06-14T08:35:58;8.48;;;5.60;;
10045;SDS011;5063;50.878;4.742;2023-06-14T08:38:23;6.97;;;5.63;;
10045;SDS011;5063;50.878;4.742;2023-06-14T08:40:50;7.10;;;5.53;;
10045;SDS011;5063;50.878;4.742;2023-06-14T08:43:16;7.63;;;5.72;;
10045;SDS011;5063;50.878;4.742;2023-06-14T08:45:42;9.07;;;6.20;;
10045;SDS011;5063;50.878;4.742;2023-06-14T08:48:08;7.38;;;5.10;;
10045;SDS011;5063;50.878;4.742;2023-06-14T08:50:34;7.65;;;6.43;;
10045;SDS011;5063;50.878;4.742;2023-06-14T08:53:04;7.20;;;5.55;;
10045;SDS011;5063;50.878;4.742;2023-06-14T08:55:35;6.65;;;5.38;;
10045;SDS011;5063;50.878;4.742;2023-06-14T08:58:04;6.05;;;5.40;;
10045;SDS011;5063;50.878;4.742;2023-06-14T09:00:30;6.28;;;5.20;;
10045;SDS011;5063;50.878;4.742;2023-06-14T09:02:57;9.00;;;4.88;;
10045;SDS011;5063;50.878;4.742;2023-06-14T09:05:26;6.38;;;4.90;;
10045;SDS011;5063;50.878;4.742;2023-06-14T09:07:54;7.22;;;5.30;;
10045;SDS011;5063;50.878;4.742;2023-06-14T09:10:21;8.05;;;5.25;;
10045;SDS011;5063;50.878;4.742;2023-06-14T09:12:47;6.15;;;5.43;;
10045;SDS011;5063;50.878;4.742;2023-06-14T09:15:13;6.68;;;5.47;;
10045;SDS011;5063;50.878;4.742;2023-06-14T09:17:39;7.05;;;5.03;;
10045;SDS011;5063;50.878;4.742;2023-06-14T09:20:05;6.47;;;5.60;;
10045;SDS011;5063;50.878;4.742;2023-06-14T09:22:38;6.28;;;5.28;;
10045;SDS011;5063;50.878;4.742;2023-06-14T09:25:04;6.22;;;5.05;;
10045;SDS011;5063;50.878;4.742;2023-06-14T09:27:31;7.88;;;6.38;;
10045;SDS011;5063;50.878;4.742;2023-06-14T09:29:57;6.20;;;5.15;;
10045;SDS011;5063;50.878;4.742;2023-06-14T09:32:23;7.30;;;4.85;;
10045;SDS011;5063;50.878;4.742;2023-06-14T09:34:50;5.53;;;4.95;;
10045;SDS011;5063;50.878;4.742;2023-06-14T09:37:26;8.52;;;5.53;;
10045;SDS011;5063;50.878;4.742;2023-06-14T09:39:56;5.45;;;4.82;;
10045;SDS011;5063;50.878;4.742;2023-06-14T09:42:22;9.52;;;4.85;;
10045;SDS011;5063;50.878;4.742;2023-06-14T09:44:51;6.05;;;5.10;;
10045;SDS011;5063;50.878;4.742;2023-06-14T09:47:19;6.45;;;4.78;;
10045;SDS011;5063;50.878;4.742;2023-06-14T09:49:46;7.88;;;4.53;;
10045;SDS011;5063;50.878;4.742;2023-06-14T09:52:17;6.30;;;4.57;;
10045;SDS011;5063;50.878;4.742;2023-06-14T09:54:44;7.93;;;4.80;;
10045;SDS011;5063;50.878;4.742;2023-06-14T09:57:12;8.15;;;4.20;;
10045;SDS011;5063;50.878;4.742;2023-06-14T09:59:43;7.00;;;5.30;;
10045;SDS011;5063;50.878;4.742;2023-06-14T10:02:12;8.45;;;3.97;;
10045;SDS011;5063;50.878;4.742;2023-06-14T10:04:48;6.80;;;4.10;;
10045;SDS011;5063;50.878;4.742;2023-06-14T10:07:20;5.53;;;4.25;;
10045;SDS011;5063;50.878;4.742;2023-06-14T10:09:47;5.93;;;4.13;;
10045;SDS011;5063;50.878;4.742;2023-06-14T10:12:17;4.25;;;3.88;;
10045;SDS011;5063;50.878;4.742;2023-06-14T10:14:50;8.45;;;4.90;;
10045;SDS011;5063;50.878;4.742;2023-06-14T10:17:24;10.68;;;4.35;;
10045;SDS011;5063;50.878;4.742;2023-06-14T10:20:03;4.45;;;3.70;;
10045;SDS011;5063;50.878;4.742;2023-06-14T10:22:51;6.72;;;4.38;;
10045;SDS011;5063;50.878;4.742;2023-06-14T10:25:27;7.82;;;4.38;;
10045;SDS011;5063;50.878;4.742;2023-06-14T10:33:48;6.18;;;4.13;;
10045;SDS011;5063;50.878;4.742;2023-06-14T10:41:53;8.05;;;3.80;;
10045;SDS011;5063;50.878;4.742;2023-06-14T10:46:58;5.88;;;3.72;;
10045;SDS011;5063;50.878;4.742;2023-06-14T10:52:11;7.25;;;3.72;;
10045;SDS011;5063;50.878;4.742;2023-06-14T10:57:50;4.10;;;3.70;;
10045;SDS011;5063;50.878;4.742;2023-06-14T11:00:21;5.25;;;3.80;;
10045;SDS011;5063;50.878;4.742;2023-06-14T11:06:15;4.63;;;3.63;;
10045;SDS011;5063;50.878;4.742;2023-06-14T11:11:33;4.97;;;3.80;;
10045;SDS011;5063;50.878;4.742;2023-06-14T11:14:00;5.55;;;3.30;;
10045;SDS011;5063;50.878;4.742;2023-06-14T11:16:27;6.63;;;3.90;;
10045;SDS011;5063;50.878;4.742;2023-06-14T11:18:53;4.35;;;3.38;;
10045;SDS011;5063;50.878;4.742;2023-06-14T11:21:19;6.35;;;3.88;;
10045;SDS011;5063;50.878;4.742;2023-06-14T11:23:49;5.13;;;3.75;;
10045;SDS011;5063;50.878;4.742;2023-06-14T11:26:16;5.90;;;3.70;;
10045;SDS011;5063;50.878;4.742;2023-06-14T11:28:48;5.43;;;3.15;;
10045;SDS011;5063;50.878;4.742;2023-06-14T11:31:20;12.73;;;3.70;;
10045;SDS011;5063;50.878;4.742;2023-06-14T11:33:49;4.63;;;3.63;;
10045;SDS011;5063;50.878;4.742;2023-06-14T11:36:15;5.35;;;3.55;;
10045;SDS011;5063;50.878;4.742;2023-06-14T11:38:41;4.53;;;3.40;;
10045;SDS011;5063;50.878;4.742;2023-06-14T11:41:07;6.25;;;3.95;;
10045;SDS011;5063;50.878;4.742;2023-06-14T11:43:33;5.32;;;3.22;;
10045;SDS011;5063;50.878;4.742;2023-06-14T11:46:00;4.85;;;3.45;;
10045;SDS011;5063;50.878;4.742;2023-06-14T11:48:40;5.30;;;3.63;;
10045;SDS011;5063;50.878;4.742;2023-06-14T11:51:07;10.85;;;3.58;;
10045;SDS011;5063;50.878;4.742;2023-06-14T11:53:33;6.78;;;3.42;;
10045;SDS011;5063;50.878;4.742;2023-06-14T11:55:59;5.38;;;3.70;;
10045;SDS011;5063;50.878;4.742;2023-06-14T11:58:25;4.82;;;3.50;;
10045;SDS011;5063;50.878;4.742;2023-06-14T12:00:52;6.05;;;3.47;;
10045;SDS011;5063;50.878;4.742;2023-06-14T12:03:22;4.13;;;3.22;;
10045;SDS011;5063;50.878;4.742;2023-06-14T12:05:50;4.85;;;3.30;;
10045;SDS011;5063;50.878;4.742;2023-06-14T12:08:31;5.70;;;3.00;;
10045;SDS011;5063;50.878;4.742;2023-06-14T12:11:11;5.05;;;3.63;;
10045;SDS011;5063;50.878;4.742;2023-06-14T12:13:40;4.28;;;3.00;;
10045;SDS011;5063;50.878;4.742;2023-06-14T12:16:09;3.50;;;3.20;;
10045;SDS011;5063;50.878;4.742;2023-06-14T12:18:36;7.00;;;3.15;;
10045;SDS011;5063;50.878;4.742;2023-06-14T12:21:05;5.55;;;3.22;;
10045;SDS011;5063;50.878;4.742;2023-06-14T12:23:45;6.13;;;3.10;;
10045;SDS011;5063;50.878;4.742;2023-06-14T12:26:15;6.35;;;3.03;;
10045;SDS011;5063;50.878;4.742;2023-06-14T12:28:42;4.53;;;3.10;;
10045;SDS011;5063;50.878;4.742;2023-06-14T12:31:13;6.55;;;3.00;;
10045;SDS011;5063;50.878;4.742;2023-06-14T12:33:41;5.45;;;3.15;;
10045;SDS011;5063;50.878;4.742;2023-06-14T12:36:07;3.17;;;2.60;;
10045;SDS011;5063;50.878;4.742;2023-06-14T12:38:34;3.33;;;2.67;;
10045;SDS011;5063;50.878;4.742;2023-06-14T12:41:00;3.92;;;2.50;;
10045;SDS011;5063;50.878;4.742;2023-06-14T12:43:26;6.55;;;3.40;;
10045;SDS011;5063;50.878;4.742;2023-06-14T12:45:52;4.32;;;2.85;;
10045;SDS011;5063;50.878;4.742;2023-06-14T12:48:18;4.53;;;2.85;;
10045;SDS011;5063;50.878;4.742;2023-06-14T12:50:44;5.25;;;3.08;;
10045;SDS011;5063;50.878;4.742;2023-06-14T12:53:10;9.32;;;3.15;;
10045;SDS011;5063;50.878;4.742;2023-06-14T12:55:37;7.75;;;2.60;;
10045;SDS011;5063;50.878;4.742;2023-06-14T12:58:03;3.22;;;2.13;;
10045;SDS011;5063;50.878;4.742;2023-06-14T13:00:29;7.25;;;2.83;;
10045;SDS011;5063;50.878;4.742;2023-06-14T13:02:58;5.35;;;2.63;;
10045;SDS011;5063;50.878;4.742;2023-06-14T13:05:24;3.63;;;2.42;;
10045;SDS011;5063;50.878;4.742;2023-06-14T13:07:50;3.40;;;2.30;;
10045;SDS011;5063;50.878;4.742;2023-06-14T13:10:16;3.88;;;2.00;;
10045;SDS011;5063;50.878;4.742;2023-06-14T13:12:42;2.50;;;2.22;;
10045;SDS011;5063;50.878;4.742;2023-06-14T13:15:09;3.03;;;2.28;;
10045;SDS011;5063;50.878;4.742;2023-06-14T13:17:35;2.28;;;2.08;;
10045;SDS011;5063;50.878;4.742;2023-06-14T13:20:07;2.03;;;1.92;;
10045;SDS011;5063;50.878;4.742;2023-06-14T13:22:33;2.15;;;1.80;;
10045;SDS011;5063;50.878;4.742;2023-06-14T13:25:00;2.58;;;1.90;;
10045;SDS011;5063;50.878;4.742;2023-06-14T13:27:26;1.90;;;1.77;;
10045;SDS011;5063;50.878;4.742;2023-06-14T13:29:52;2.30;;;2.10;;
10045;SDS011;5063;50.878;4.742;2023-06-14T13:32:20;3.88;;;1.77;;
10045;SDS011;5063;50.878;4.742;2023-06-14T13:34:47;2.30;;;1.67;;
10045;SDS011;5063;50.878;4.742;2023-06-14T13:37:13;3.05;;;1.90;;
10045;SDS011;5063;50.878;4.742;2023-06-14T13:39:39;2.38;;;1.90;;
10045;SDS011;5063;50.878;4.742;2023-06-14T13:42:05;4.70;;;2.20;;
10045;SDS011;5063;50.878;4.742;2023-06-14T13:44:31;3.70;;;1.90;;
10045;SDS011;5063;50.878;4.742;2023-06-14T13:46:57;1.95;;;1.85;;
10045;SDS011;5063;50.878;4.742;2023-06-14T13:49:22;4.22;;;1.95;;
10045;SDS011;5063;50.878;4.742;2023-06-14T13:51:48;2.72;;;1.90;;
10045;SDS011;5063;50.878;4.742;2023-06-14T13:54:14;5.78;;;2.10;;
10045;SDS011;5063;50.878;4.742;2023-06-14T13:56:40;2.60;;;2.10;;
10045;SDS011;5063;50.878;4.742;2023-06-14T13:59:06;2.22;;;1.80;;
10045;SDS011;5063;50.878;4.742;2023-06-14T14:01:32;4.43;;;2.08;;
10045;SDS011;5063;50.878;4.742;2023-06-14T14:03:58;3.05;;;1.70;;
10045;SDS011;5063;50.878;4.742;2023-06-14T14:06:25;2.58;;;2.22;;
10045;SDS011;5063;50.878;4.742;2023-06-14T14:08:51;2.90;;;1.95;;
10045;SDS011;5063;50.878;4.742;2023-06-14T14:11:18;4.03;;;2.00;;
10045;SDS011;5063;50.878;4.742;2023-06-14T14:13:44;4.22;;;1.70;;
10045;SDS011;5063;50.878;4.742;2023-06-14T14:16:10;1.92;;;1.60;;
10045;SDS011;5063;50.878;4.742;2023-06-14T14:18:36;3.45;;;1.77;;
10045;SDS011;5063;50.878;4.742;2023-06-14T14:21:02;2.55;;;1.80;;
10045;SDS011;5063;50.878;4.742;2023-06-14T14:23:28;3.08;;;1.80;;
10045;SDS011;5063;50.878;4.742;2023-06-14T14:25:54;3.58;;;1.90;;
10045;SDS011;5063;50.878;4.742;2023-06-14T14:28:20;2.95;;;1.98;;
10045;SDS011;5063;50.878;4.742;2023-06-14T14:30:46;3.38;;;2.05;;
10045;SDS011;5063;50.878;4.742;2023-06-14T14:33:16;4.32;;;2.10;;
10045;SDS011;5063;50.878;4.742;2023-06-14T14:35:43;7.43;;;2.60;;
10045;SDS011;5063;50.878;4.742;2023-06-14T14:38:12;4.38;;;2.25;;
10045;SDS011;5063;50.878;4.742;2023-06-14T14:40:40;3.42;;;2.40;;
10045;SDS011;5063;50.878;4.742;2023-06-14T14:43:06;2.75;;;2.13;;
10045;SDS011;5063;50.878;4.742;2023-06-14T14:45:32;1.98;;;1.80;;
10045;SDS011;5063;50.878;4.742;2023-06-14T14:47:58;2.10;;;1.90;;
10045;SDS011;5063;50.878;4.742;2023-06-14T14:50:25;4.07;;;2.03;;
10045;SDS011;5063;50.878;4.742;2023-06-14T14:52:51;3.85;;;2.28;;
10045;SDS011;5063;50.878;4.742;2023-06-14T14:55:16;2.95;;;2.00;;
10045;SDS011;5063;50.878;4.742;2023-06-14T14:57:42;6.35;;;2.30;;
10045;SDS011;5063;50.878;4.742;2023-06-14T15:00:09;1.88;;;1.77;;
10045;SDS011;5063;50.878;4.742;2023-06-14T15:02:35;2.67;;;2.10;;
10045;SDS011;5063;50.878;4.742;2023-06-14T15:05:00;3.00;;;2.30;;
10045;SDS011;5063;50.878;4.742;2023-06-14T15:07:27;2.30;;;2.10;;
10045;SDS011;5063;50.878;4.742;2023-06-14T15:09:54;2.53;;;2.22;;
10045;SDS011;5063;50.878;4.742;2023-06-14T15:12:20;2.33;;;2.10;;
10045;SDS011;5063;50.878;4.742;2023-06-14T15:14:49;2.83;;;2.33;;
10045;SDS011;5063;50.878;4.742;2023-06-14T15:17:17;2.30;;;2.10;;
10045;SDS011;5063;50.878;4.742;2023-06-14T15:19:44;4.28;;;2.15;;
10045;SDS011;5063;50.878;4.742;2023-06-14T15:22:13;2.65;;;2.33;;
10045;SDS011;5063;50.878;4.742;2023-06-14T15:24:42;8.55;;;2.08;;
10045;SDS011;5063;50.878;4.742;2023-06-14T15:27:08;1.80;;;1.70;;
10045;SDS011;5063;50.878;4.742;2023-06-14T15:29:36;5.88;;;1.65;;
10045;SDS011;5063;50.878;4.742;2023-06-14T15:32:02;2.97;;;2.00;;